North Wildwood, New Jersey
Current Conditions -  °F | °C
As of 10:54 AM on Monday 26 Jan 2015 (Local Time) from KMIV Reporting Station
Overcast Overcast  
Wind Chill: 26°   Ceiling: 800
Heat Index: 35°   Visibility: 10mi
Dew Point: 32°   Wind: 14mph
Humidity: 89%   Direction: 50°NE
Pressure: 29.81"   Gusts: 22mph
Location:  38.9808°N, 74.8281°W
Report Text: KMIV 261554Z AUTO 05012G19KT 10SM OVC008 02/00 A2981 RMK AO2 RAE02 SLP093 P0003 T00170000
Loading
Personal Weather Stations






























Interactive Weather Map New forecast layout! Learn more

10-Day Weather Forecast

Advertisements
Track Severe Weather on mobile